createdAt,value
2019-02-22T00:00:38.137Z,38.43
2019-02-22T00:03:08.355Z,39.07
2019-02-22T00:05:38.981Z,36.50
2019-02-22T00:08:09.215Z,35.60
2019-02-22T00:10:39.758Z,35.87
2019-02-22T00:13:10.019Z,32.80
2019-02-22T00:15:40.387Z,31.30
2019-02-22T00:18:10.857Z,31.30
2019-02-22T00:20:41.396Z,27.33
2019-02-22T00:23:11.817Z,26.37
2019-02-22T00:25:42.102Z,25.13
2019-02-22T00:28:15.579Z,22.83
2019-02-22T00:30:46.027Z,21.67
2019-02-22T00:33:16.577Z,21.27
2019-02-22T00:35:46.927Z,21.17
2019-02-22T00:38:17.480Z,18.70
2019-02-22T00:40:47.680Z,17.70
2019-02-22T00:43:18.064Z,19.03
2019-02-22T00:45:48.321Z,20.33
2019-02-22T00:48:18.552Z,20.13
2019-02-22T00:50:48.777Z,20.70
2019-02-22T00:53:19.086Z,18.73
2019-02-22T00:55:49.362Z,21.13
2019-02-22T00:58:19.604Z,20.60
2019-02-22T01:00:49.896Z,19.70
2019-02-22T01:03:20.086Z,19.33
2019-02-22T01:05:50.374Z,19.23
2019-02-22T01:08:20.590Z,19.30
2019-02-22T01:10:51.341Z,19.87
2019-02-22T01:13:24.463Z,18.30
2019-02-22T01:15:55.574Z,18.27
2019-02-22T01:18:25.820Z,18.57
2019-02-22T01:20:56.122Z,19.00
2019-02-22T01:23:26.656Z,17.07
2019-02-22T01:25:57.760Z,18.77
2019-02-22T01:28:27.974Z,20.67
2019-02-22T01:30:58.178Z,18.23
2019-02-22T01:33:28.737Z,18.73
2019-02-22T01:35:58.983Z,18.53
2019-02-22T01:38:29.506Z,17.00
2019-02-22T01:41:02.111Z,18.87
2019-02-22T01:43:33.468Z,17.07
2019-02-22T01:46:03.956Z,18.23
2019-02-22T01:48:34.184Z,19.07
2019-02-22T01:51:04.820Z,18.63
2019-02-22T01:53:35.101Z,19.77
2019-02-22T01:56:05.612Z,17.83
2019-02-22T01:58:35.890Z,19.93
2019-02-22T02:01:12.232Z,18.57
2019-02-22T02:03:42.425Z,20.47
2019-02-22T02:06:12.951Z,18.80
2019-02-22T02:08:43.380Z,18.20
2019-02-22T02:11:13.617Z,18.97
2019-02-22T02:13:44.227Z,20.83
2019-02-22T02:16:14.866Z,20.37
2019-02-22T02:18:45.043Z,18.90
2019-02-22T02:21:15.277Z,20.73
2019-02-22T02:23:45.835Z,18.83
2019-02-22T02:26:16.604Z,18.43
2019-02-22T02:28:46.867Z,18.33
2019-02-22T02:31:17.064Z,18.13
2019-02-22T02:33:48.236Z,18.93
2019-02-22T02:36:18.488Z,17.90
2019-02-22T02:38:48.953Z,20.97
2019-02-22T02:41:19.195Z,20.03
2019-02-22T02:43:49.737Z,22.57
2019-02-22T02:46:19.971Z,18.83
2019-02-22T02:48:50.901Z,19.93
2019-02-22T02:51:21.145Z,21.07
2019-02-22T02:53:51.391Z,19.13
2019-02-22T02:56:21.622Z,20.33
2019-02-22T02:58:51.893Z,18.80
2019-02-22T03:01:22.142Z,19.83
2019-02-22T03:03:52.348Z,19.73
2019-02-22T03:06:29.575Z,17.63
2019-02-22T03:09:00.294Z,16.83
2019-02-22T03:11:30.778Z,19.83
2019-02-22T03:14:01.827Z,19.80
2019-02-22T03:16:32.146Z,18.80
2019-02-22T03:19:02.748Z,19.83
2019-02-22T03:21:33.269Z,18.40
2019-02-22T03:24:03.894Z,21.40
2019-02-22T03:26:34.565Z,19.07
2019-02-22T03:29:05.412Z,18.77
2019-02-22T03:31:36.029Z,19.20
2019-02-22T03:34:06.238Z,17.77
2019-02-22T03:36:36.595Z,18.07
2019-02-22T03:39:08.189Z,17.40
2019-02-22T03:41:39.064Z,16.83
2019-02-22T03:44:09.337Z,17.80
2019-02-22T03:46:39.626Z,16.30
2019-02-22T03:49:09.935Z,17.90
2019-02-22T03:51:40.788Z,18.40
2019-02-22T03:54:11.370Z,18.13
2019-02-22T03:56:41.788Z,17.57
2019-02-22T03:59:12.351Z,18.90
2019-02-22T04:01:43.235Z,18.40
2019-02-22T04:04:13.746Z,17.23
2019-02-22T04:06:43.991Z,16.47
2019-02-22T04:09:14.197Z,15.47
2019-02-22T04:11:46.129Z,18.43
2019-02-22T04:14:16.833Z,16.13
2019-02-22T04:16:47.102Z,19.13
2019-02-22T04:19:17.359Z,17.80
2019-02-22T04:21:48.320Z,16.97
2019-02-22T04:24:18.512Z,19.00
2019-02-22T04:26:49.177Z,16.50
2019-02-22T04:29:19.399Z,17.20
2019-02-22T04:31:49.742Z,17.67
2019-02-22T04:34:20.351Z,18.67
2019-02-22T04:36:50.637Z,18.33
2019-02-22T04:39:20.801Z,19.07
2019-02-22T04:41:58.064Z,19.13
2019-02-22T04:44:22.873Z,17.57
2019-02-22T04:46:53.083Z,18.37
2019-02-22T04:49:23.377Z,18.50
2019-02-22T04:51:54.059Z,17.77
2019-02-22T04:54:24.269Z,17.70
2019-02-22T04:56:54.499Z,15.83
2019-02-22T04:59:24.738Z,19.33
2019-02-22T05:01:55.321Z,18.77
2019-02-22T05:04:25.559Z,17.53
2019-02-22T05:06:56.180Z,19.10
2019-02-22T05:09:26.458Z,19.37
2019-02-22T05:12:10.066Z,16.87
2019-02-22T05:14:30.051Z,16.97
2019-02-22T05:17:00.534Z,18.10
2019-02-22T05:19:30.754Z,17.33
2019-02-22T05:22:01.397Z,20.93
2019-02-22T05:24:31.635Z,16.43
2019-02-22T05:27:02.178Z,19.77
2019-02-22T05:29:33.064Z,16.73
2019-02-22T05:32:03.554Z,21.40
2019-02-22T05:34:33.824Z,17.27
2019-02-22T05:37:04.460Z,16.87
2019-02-22T05:39:35.216Z,16.27
2019-02-22T05:42:06.076Z,18.30
2019-02-22T05:44:36.441Z,18.17
2019-02-22T05:47:07.019Z,16.90
2019-02-22T05:49:37.268Z,16.97
2019-02-22T05:52:07.484Z,18.17
2019-02-22T05:54:37.794Z,18.90
2019-02-22T05:57:07.987Z,17.93
2019-02-22T05:59:38.378Z,18.53
2019-02-22T06:02:08.583Z,20.00
2019-02-22T06:04:39.473Z,18.73
2019-02-22T06:07:10.064Z,18.17
2019-02-22T06:09:40.294Z,16.73
2019-02-22T06:12:10.569Z,15.87
2019-02-22T06:14:40.889Z,17.20
2019-02-22T06:17:14.580Z,17.47
2019-02-22T06:19:43.460Z,17.33
2019-02-22T06:22:13.785Z,17.10
2019-02-22T06:24:44.530Z,18.20
2019-02-22T06:27:15.165Z,16.80
2019-02-22T06:29:45.479Z,17.67
2019-02-22T06:32:15.984Z,16.97
2019-02-22T06:34:46.279Z,22.40
2019-02-22T06:37:16.720Z,16.63
2019-02-22T06:39:47.434Z,17.23
2019-02-22T06:42:18.781Z,17.57
2019-02-22T06:44:49.869Z,15.97
2019-02-22T06:47:22.742Z,17.30
2019-02-22T06:49:52.684Z,17.63
2019-02-22T06:52:23.142Z,16.57
2019-02-22T06:54:53.429Z,15.67
2019-02-22T06:57:24.185Z,17.80
2019-02-22T06:59:55.055Z,21.40
2019-02-22T07:02:25.458Z,18.50
2019-02-22T07:04:55.987Z,15.57
2019-02-22T07:07:26.685Z,15.27
2019-02-22T07:09:57.954Z,17.10
2019-02-22T07:12:34.863Z,15.67
2019-02-22T07:15:06.053Z,18.90
2019-02-22T07:17:36.410Z,16.77
2019-02-22T07:20:08.260Z,18.63
2019-02-22T07:22:42.127Z,19.60
2019-02-22T07:25:12.414Z,18.17
2019-02-22T07:27:43.756Z,17.47
2019-02-22T07:30:14.813Z,16.13
2019-02-22T07:32:45.354Z,19.87
2019-02-22T07:35:15.665Z,19.63
2019-02-22T07:37:46.185Z,16.20
2019-02-22T07:40:16.710Z,19.20
2019-02-22T07:42:47.419Z,18.10
2019-02-22T07:45:17.772Z,24.33
2019-02-22T07:47:48.094Z,26.53
2019-02-22T07:50:19.200Z,27.20
2019-02-22T07:52:49.586Z,24.53
2019-02-22T07:55:19.918Z,26.13
2019-02-22T07:57:50.345Z,24.97
2019-02-22T08:00:20.876Z,19.43
2019-02-22T08:02:51.599Z,20.17
2019-02-22T08:05:22.015Z,19.60
2019-02-22T08:07:56.246Z,19.07
2019-02-22T08:10:26.558Z,18.37
2019-02-22T08:12:56.956Z,20.00
2019-02-22T08:15:27.728Z,22.57
2019-02-22T08:17:58.171Z,16.40
2019-02-22T08:20:28.448Z,22.23
2019-02-22T08:22:58.764Z,20.03
2019-02-22T08:25:29.141Z,24.33
2019-02-22T08:27:59.452Z,20.17
2019-02-22T08:30:29.935Z,22.53
2019-02-22T08:33:00.274Z,16.80
2019-02-22T08:35:32.547Z,24.40
2019-02-22T08:38:03.018Z,18.47
2019-02-22T08:40:33.766Z,19.23
2019-02-22T08:43:04.081Z,18.47
2019-02-22T08:45:34.819Z,20.40
2019-02-22T08:48:05.186Z,17.30
2019-02-22T08:50:35.590Z,19.37
2019-02-22T08:53:06.165Z,17.30
2019-02-22T08:55:36.842Z,18.63
2019-02-22T08:58:07.291Z,20.20
2019-02-22T09:00:37.693Z,20.90
2019-02-22T09:03:08.063Z,21.67
2019-02-22T09:05:38.392Z,20.73
2019-02-22T09:08:09.051Z,20.90
2019-02-22T09:10:39.372Z,20.17
2019-02-22T09:13:09.890Z,21.77
2019-02-22T09:15:40.251Z,22.87
2019-02-22T09:18:10.628Z,24.87
2019-02-22T09:20:42.709Z,25.67
2019-02-22T09:23:13.038Z,23.83
2019-02-22T09:25:43.346Z,22.33
2019-02-22T09:28:16.081Z,23.23
2019-02-22T09:30:47.387Z,23.30
2019-02-22T09:33:17.723Z,23.50
2019-02-22T09:35:48.340Z,24.60
2019-02-22T09:38:25.074Z,22.77
2019-02-22T09:40:56.540Z,22.30
2019-02-22T09:43:29.957Z,23.10
2019-02-22T09:46:00.336Z,23.40
2019-02-22T09:48:34.552Z,22.10
2019-02-22T09:51:05.196Z,21.57
2019-02-22T09:53:35.602Z,22.17
2019-02-22T09:56:06.371Z,22.60
2019-02-22T09:58:36.770Z,23.57
2019-02-22T10:01:07.226Z,23.27
2019-02-22T10:03:37.886Z,25.77
2019-02-22T10:06:08.493Z,26.97
2019-02-22T10:08:39.374Z,28.60
2019-02-22T10:11:09.898Z,30.63
2019-02-22T10:13:41.555Z,28.73
2019-02-22T10:16:14.088Z,27.80
2019-02-22T10:18:46.279Z,29.43
2019-02-22T10:21:16.926Z,30.07
2019-02-22T10:23:47.996Z,32.83
2019-02-22T10:26:21.310Z,32.90
2019-02-22T10:28:50.969Z,34.47
2019-02-22T10:31:21.256Z,35.03
2019-02-22T10:33:52.237Z,38.47
2019-02-22T10:36:22.681Z,38.30
2019-02-22T10:38:55.223Z,40.03
2019-02-22T10:41:26.352Z,35.30
2019-02-22T10:43:56.965Z,31.43
2019-02-22T10:46:33.023Z,30.83
2019-02-22T10:49:04.928Z,29.23
2019-02-22T10:51:37.616Z,30.43
2019-02-22T10:54:08.721Z,31.37
2019-02-22T10:56:40.033Z,30.35
2019-02-22T10:59:10.467Z,29.73
2019-02-22T11:01:40.847Z,27.40
2019-02-22T11:04:13.934Z,29.30
2019-02-22T11:06:44.294Z,26.83
2019-02-22T11:09:17.466Z,26.40
2019-02-22T11:11:48.124Z,27.33
2019-02-22T11:14:28.767Z,27.67
2019-02-22T11:16:51.318Z,27.80
2019-02-22T11:19:22.065Z,28.77
2019-02-22T11:21:52.449Z,28.40
2019-02-22T11:24:24.954Z,29.10
2019-02-22T11:26:55.685Z,26.60
2019-02-22T11:29:26.749Z,28.13
2019-02-22T11:31:58.132Z,27.30
2019-02-22T11:34:28.542Z,27.53
2019-02-22T11:36:59.251Z,25.90
2019-02-22T11:39:29.599Z,26.30
2019-02-22T11:42:00.033Z,27.20
2019-02-22T11:44:39.897Z,28.23
2019-02-22T11:47:04.337Z,28.33
2019-02-22T11:49:34.635Z,28.23
2019-02-22T11:52:05.185Z,26.70
2019-02-22T11:54:35.595Z,28.03
2019-02-22T11:57:08.874Z,27.63
2019-02-22T11:59:39.348Z,27.97
2019-02-22T12:02:09.692Z,27.63
2019-02-22T12:04:40.048Z,27.77
2019-02-22T12:07:11.091Z,27.00
2019-02-22T12:09:42.247Z,27.33
2019-02-22T12:12:12.864Z,28.17
2019-02-22T12:14:51.065Z,28.33
2019-02-22T12:17:15.918Z,27.90
2019-02-22T12:19:47.039Z,28.33
2019-02-22T12:22:17.937Z,27.13
2019-02-22T12:24:49.466Z,27.10
2019-02-22T12:27:19.880Z,28.57
2019-02-22T12:29:52.441Z,29.03
2019-02-22T12:32:22.682Z,30.57
2019-02-22T12:34:53.563Z,30.17
2019-02-22T12:37:24.531Z,31.33
2019-02-22T12:39:54.869Z,31.07
2019-02-22T12:42:25.678Z,29.27
2019-02-22T12:45:02.982Z,29.77
2019-02-22T12:47:30.384Z,29.93
2019-02-22T12:50:00.871Z,30.63
2019-02-22T12:52:34.237Z,31.13
2019-02-22T12:55:05.331Z,31.93
2019-02-22T12:57:35.741Z,30.13
2019-02-22T13:00:07.472Z,31.13
2019-02-22T13:02:38.535Z,29.63
2019-02-22T13:05:11.201Z,32.00
2019-02-22T13:07:41.508Z,30.33
2019-02-22T13:10:12.007Z,29.47
2019-02-22T13:12:42.754Z,28.93
2019-02-22T13:15:14.499Z,28.40
2019-02-22T13:17:47.456Z,28.93
2019-02-22T13:20:17.852Z,29.70
2019-02-22T13:22:48.595Z,32.10
2019-02-22T13:25:19.195Z,30.20
2019-02-22T13:27:50.097Z,28.97
2019-02-22T13:30:21.259Z,28.77
2019-02-22T13:32:51.696Z,30.27
2019-02-22T13:35:22.138Z,29.30
2019-02-22T13:37:52.630Z,29.17
2019-02-22T13:40:26.041Z,28.57
2019-02-22T13:42:57.662Z,30.27
2019-02-22T13:45:28.036Z,27.57
2019-02-22T13:48:01.007Z,28.20
2019-02-22T13:50:32.352Z,29.00
2019-02-22T13:53:02.856Z,28.70
2019-02-22T13:55:35.658Z,30.60
2019-02-22T13:58:06.700Z,31.03
2019-02-22T14:00:37.237Z,30.00
2019-02-22T14:03:10.057Z,29.37
2019-02-22T14:05:40.369Z,29.57
2019-02-22T14:08:11.482Z,28.07
2019-02-22T14:10:41.853Z,28.33
2019-02-22T14:13:12.248Z,29.60
2019-02-22T14:15:42.974Z,29.10
2019-02-22T14:18:13.628Z,28.50
2019-02-22T14:20:44.114Z,27.30
2019-02-22T14:23:14.764Z,27.70
2019-02-22T14:25:45.202Z,27.90
2019-02-22T14:28:16.182Z,27.90
2019-02-22T14:30:48.578Z,28.43
2019-02-22T14:33:22.660Z,29.27
2019-02-22T14:35:56.420Z,28.17
2019-02-22T14:38:29.130Z,28.23
2019-02-22T14:40:59.814Z,28.93
2019-02-22T14:43:30.256Z,28.67
2019-02-22T14:46:00.932Z,28.93
2019-02-22T14:48:33.419Z,30.00
2019-02-22T14:51:05.913Z,29.43
2019-02-22T14:53:36.700Z,28.47
2019-02-22T14:56:12.083Z,27.00
2019-02-22T14:58:43.405Z,28.70
2019-02-22T15:01:13.829Z,27.80
2019-02-22T15:03:44.325Z,28.07
2019-02-22T15:06:23.600Z,27.47
2019-02-22T15:08:54.130Z,28.43
2019-02-22T15:11:24.826Z,27.60
2019-02-22T15:13:56.118Z,27.07
2019-02-22T15:16:43.771Z,29.73
2019-02-22T15:19:16.387Z,26.23
2019-02-22T15:21:50.652Z,27.10
2019-02-22T15:24:21.569Z,28.07
2019-02-22T15:26:53.979Z,25.83
2019-02-22T15:29:25.595Z,25.97
2019-02-22T15:31:58.840Z,26.53
2019-02-22T15:34:30.437Z,26.10
2019-02-22T15:37:03.733Z,26.43
2019-02-22T15:39:34.218Z,25.47
2019-02-22T15:42:04.679Z,24.13
2019-02-22T15:44:35.903Z,25.20
2019-02-22T15:47:11.818Z,26.00
2019-02-22T15:49:40.255Z,25.47
2019-02-22T15:52:14.242Z,25.70
2019-02-22T15:54:44.716Z,23.97
2019-02-22T15:57:15.890Z,24.67
2019-02-22T15:59:47.184Z,25.13
2019-02-22T16:02:17.857Z,26.00
2019-02-22T16:04:51.791Z,24.02
2019-02-22T16:07:22.038Z,24.47
2019-02-22T16:09:52.477Z,25.43
2019-02-22T16:12:22.820Z,23.53
2019-02-22T16:14:53.079Z,22.87
2019-02-22T16:17:23.659Z,21.83
2019-02-22T16:19:53.909Z,20.50
2019-02-22T16:22:24.646Z,25.10
2019-02-22T16:24:54.909Z,23.50
2019-02-22T16:27:25.775Z,22.90
2019-02-22T16:29:57.885Z,21.00
2019-02-22T16:32:29.648Z,23.47
2019-02-22T16:35:00.348Z,23.13
2019-02-22T16:37:31.250Z,22.90
2019-02-22T16:40:01.516Z,21.80
2019-02-22T16:42:31.925Z,22.37
2019-02-22T16:45:04.999Z,21.23
2019-02-22T16:47:40.094Z,20.27
2019-02-22T16:50:07.472Z,21.23
2019-02-22T16:52:37.762Z,20.90
2019-02-22T16:55:10.342Z,19.80
2019-02-22T16:57:40.633Z,20.40
2019-02-22T17:00:12.838Z,30.63
2019-02-22T17:02:43.119Z,29.80
2019-02-22T17:05:14.485Z,29.27
2019-02-22T17:07:45.812Z,30.70
2019-02-22T17:10:16.070Z,34.27
2019-02-22T17:12:46.388Z,33.70
2019-02-22T17:15:16.800Z,33.20
2019-02-22T17:17:48.155Z,34.33
2019-02-22T17:20:18.579Z,35.23
2019-02-22T17:22:48.756Z,35.77
2019-02-22T17:25:19.070Z,36.67
2019-02-22T17:27:49.616Z,38.83
2019-02-22T17:30:20.207Z,38.87
2019-02-22T17:32:50.548Z,37.63
2019-02-22T17:35:20.774Z,36.20
2019-02-22T17:37:51.030Z,38.80
2019-02-22T17:40:21.966Z,45.60
2019-02-22T17:42:52.208Z,41.80
2019-02-22T17:45:22.549Z,45.33
2019-02-22T17:47:52.780Z,44.70
2019-02-22T17:50:23.432Z,47.10
2019-02-22T17:52:53.647Z,47.30
2019-02-22T17:55:24.486Z,45.83
2019-02-22T17:57:54.754Z,47.70
2019-02-22T18:00:26.341Z,45.60
2019-02-22T18:03:25.883Z,45.23
2019-02-22T18:05:56.442Z,47.27
2019-02-22T18:08:27.341Z,47.67
2019-02-22T18:10:57.561Z,48.47
2019-02-22T18:13:27.797Z,48.30
2019-02-22T18:15:58.446Z,46.77
2019-02-22T18:18:29.102Z,44.50
2019-02-22T18:20:59.357Z,47.07
2019-02-22T18:23:29.603Z,47.73
2019-02-22T18:26:00.117Z,47.63
2019-02-22T18:28:30.599Z,48.30
2019-02-22T18:31:00.837Z,47.57
2019-02-22T18:33:31.114Z,48.80
2019-02-22T18:36:01.867Z,49.13
2019-02-22T18:38:32.101Z,47.47
2019-02-22T18:41:02.329Z,47.87
2019-02-22T18:43:32.548Z,46.50
2019-02-22T18:46:03.479Z,48.03
2019-02-22T18:48:34.143Z,44.37
2019-02-22T18:51:05.270Z,45.67
2019-02-22T18:53:35.520Z,47.43
2019-02-22T18:56:06.196Z,44.03
2019-02-22T18:58:36.692Z,47.23
2019-02-22T19:01:06.962Z,43.27
2019-02-22T19:03:37.173Z,45.57
2019-02-22T19:06:07.728Z,44.13
2019-02-22T19:08:38.004Z,43.13
2019-02-22T19:11:08.214Z,40.60
2019-02-22T19:13:38.424Z,41.83
2019-02-22T19:16:08.743Z,41.80
2019-02-22T19:18:40.003Z,43.17
2019-02-22T19:21:10.264Z,40.20
2019-02-22T19:23:40.424Z,41.40
2019-02-22T19:26:10.657Z,41.57
2019-02-22T19:28:40.791Z,42.67
2019-02-22T19:31:11.419Z,41.33
2019-02-22T19:33:41.644Z,39.77
2019-02-22T19:36:11.853Z,44.40
2019-02-22T19:38:42.044Z,39.77
2019-02-22T19:41:12.213Z,43.10
2019-02-22T19:43:42.519Z,37.53
2019-02-22T19:46:13.025Z,40.30
2019-02-22T19:48:43.517Z,39.67
2019-02-22T19:51:13.704Z,37.23
2019-02-22T19:53:43.897Z,37.30
2019-02-22T19:56:14.453Z,39.57
2019-02-22T19:58:45.091Z,39.37
2019-02-22T20:01:15.314Z,37.63
2019-02-22T20:03:45.550Z,38.57
2019-02-22T20:06:15.856Z,37.50
2019-02-22T20:08:46.056Z,37.23
2019-02-22T20:11:16.455Z,35.70
2019-02-22T20:13:46.678Z,36.53
2019-02-22T20:16:17.398Z,38.33
2019-02-22T20:18:47.615Z,37.67
2019-02-22T20:21:17.875Z,35.87
2019-02-22T20:23:48.124Z,36.00
2019-02-22T20:26:18.609Z,35.90
2019-02-22T20:28:49.243Z,36.17
2019-02-22T20:31:20.597Z,38.27
2019-02-22T20:33:51.444Z,35.67
2019-02-22T20:36:28.395Z,35.77
2019-02-22T20:38:53.796Z,33.00
2019-02-22T20:41:23.980Z,32.67
2019-02-22T20:43:54.207Z,31.83
2019-02-22T20:46:24.398Z,34.17
2019-02-22T20:49:00.760Z,33.60
2019-02-22T20:51:27.577Z,31.97
2019-02-22T20:53:58.068Z,33.33
2019-02-22T20:56:29.002Z,29.70
2019-02-22T20:59:00.100Z,34.53
2019-02-22T21:01:30.561Z,32.80
2019-02-22T21:04:00.816Z,33.37
2019-02-22T21:06:31.287Z,34.90
2019-02-22T21:09:01.561Z,32.03
2019-02-22T21:11:32.488Z,30.17
2019-02-22T21:14:03.201Z,30.57
2019-02-22T21:16:33.759Z,34.47
2019-02-22T21:19:04.050Z,31.93
2019-02-22T21:21:34.597Z,32.80
2019-02-22T21:24:04.928Z,31.23
2019-02-22T21:26:35.638Z,30.83
2019-02-22T21:29:05.912Z,30.93
2019-02-22T21:31:36.834Z,29.60
2019-02-22T21:34:07.044Z,29.10
2019-02-22T21:36:37.538Z,29.97
2019-02-22T21:39:07.906Z,29.23
2019-02-22T21:41:39.286Z,32.20
2019-02-22T21:44:09.561Z,30.93
2019-02-22T21:46:40.458Z,31.23
2019-02-22T21:49:11.044Z,31.70
2019-02-22T21:51:43.170Z,34.57
2019-02-22T21:54:13.927Z,33.60
2019-02-22T21:56:44.551Z,32.60
2019-02-22T21:59:15.475Z,34.10
2019-02-22T22:01:46.565Z,35.70
2019-02-22T22:04:17.225Z,37.97
2019-02-22T22:06:48.286Z,40.67
2019-02-22T22:09:19.228Z,39.70
2019-02-22T22:11:50.780Z,41.50
2019-02-22T22:14:22.049Z,42.63
2019-02-22T22:16:53.875Z,39.75
2019-02-22T22:19:24.977Z,44.97
2019-02-22T22:21:55.816Z,42.73
2019-02-22T22:24:26.427Z,45.83
2019-02-22T22:26:57.005Z,43.37
2019-02-22T22:29:27.933Z,45.80
2019-02-22T22:31:58.654Z,45.03
2019-02-22T22:34:29.396Z,45.73
2019-02-22T22:36:59.992Z,47.33
2019-02-22T22:39:31.009Z,47.00
2019-02-22T22:42:02.117Z,48.67
2019-02-22T22:44:32.755Z,47.87
2019-02-22T22:47:03.746Z,49.63
2019-02-22T22:49:35.051Z,51.27
2019-02-22T22:52:05.931Z,51.13
2019-02-22T22:54:36.638Z,52.23
2019-02-22T22:57:07.412Z,53.43
2019-02-22T22:59:38.048Z,52.37
2019-02-22T23:02:09.407Z,51.40
2019-02-22T23:04:40.372Z,53.27
2019-02-22T23:07:11.286Z,52.47
2019-02-22T23:09:42.782Z,53.30
2019-02-22T23:12:13.368Z,51.80
2019-02-22T23:14:44.828Z,52.00
2019-02-22T23:17:15.728Z,52.50
2019-02-22T23:19:47.739Z,50.07
2019-02-22T23:22:19.842Z,51.50
2019-02-22T23:24:52.202Z,49.50
2019-02-22T23:27:24.930Z,50.03
2019-02-22T23:29:57.220Z,49.13
2019-02-22T23:32:29.579Z,50.10
2019-02-22T23:35:01.569Z,48.67
2019-02-22T23:37:33.534Z,48.53
2019-02-22T23:40:06.336Z,46.97
2019-02-22T23:42:38.776Z,48.87
2019-02-22T23:45:10.853Z,45.23
2019-02-22T23:47:43.196Z,47.03
2019-02-22T23:50:15.157Z,46.67
2019-02-22T23:52:47.029Z,44.80
2019-02-22T23:55:19.413Z,47.80
2019-02-22T23:57:51.463Z,46.63
